Time;durP1;ratioP1;P1;durP2;ratioP2;P2;SDS_P1;SDS_P2;PMS_P1;PMS_P2;Temp;Humidity;BMP_temperature;BMP_pressure;BME280_temperature;BME280_humidity;BME280_pressure;Samples;Min_cycle;Max_cycle;Signal;HPM_P1;HPM_P2
2023/09/22 00:02:53;;;;;;;1.75;0.90;;;15.60;99.90;;;;;;6300910;28;20036;-80
2023/09/22 00:05:54;;;;;;;0.52;0.47;;;15.60;99.90;;;;;;6300491;28;20049;-79
2023/09/22 00:08:56;;;;;;;2.28;0.77;;;15.50;99.90;;;;;;6301217;28;20037;-79
2023/09/22 00:11:59;;;;;;;0.98;0.63;;;15.50;99.90;;;;;;6300362;28;20052;-79
2023/09/22 00:15:03;;;;;;;1.02;0.73;;;15.50;99.90;;;;;;6299878;28;20156;-81
2023/09/22 00:18:06;;;;;;;1.63;1.52;;;15.50;99.90;;;;;;6300465;28;20197;-80
2023/09/22 00:21:08;;;;;;;0.80;0.70;;;15.40;99.90;;;;;;6300633;28;20524;-79
2023/09/22 00:24:10;;;;;;;1.15;0.98;;;15.40;99.90;;;;;;6300329;28;20053;-80
2023/09/22 00:27:15;;;;;;;1.40;0.70;;;15.30;99.90;;;;;;6300049;28;20048;-78
2023/09/22 00:30:17;;;;;;;1.63;0.82;;;15.40;99.90;;;;;;6299848;28;20420;-80
2023/09/22 00:33:20;;;;;;;0.95;0.60;;;15.30;99.90;;;;;;6299973;28;20028;-79
2023/09/22 00:36:22;;;;;;;1.67;0.90;;;15.30;99.90;;;;;;6301011;28;20421;-79
2023/09/22 00:39:24;;;;;;;0.82;0.80;;;15.30;99.90;;;;;;6300146;28;20048;-79
2023/09/22 00:42:25;;;;;;;1.48;0.95;;;15.30;99.90;;;;;;6299132;28;20052;-80
2023/09/22 00:45:27;;;;;;;1.55;1.02;;;15.30;99.90;;;;;;6297201;28;20410;-79
2023/09/22 00:48:34;;;;;;;1.58;0.82;;;15.30;99.90;;;;;;6304364;28;20040;-79
2023/09/22 00:51:36;;;;;;;0.70;0.50;;;15.30;99.90;;;;;;6299832;28;20098;-78
2023/09/22 00:54:38;;;;;;;1.40;0.80;;;15.20;99.90;;;;;;6300304;28;20044;-80
2023/09/22 00:57:40;;;;;;;1.20;0.60;;;15.10;99.90;;;;;;6299220;28;20052;-80
2023/09/22 01:00:47;;;;;;;0.63;0.60;;;15.10;99.90;;;;;;6299117;28;20504;-81
2023/09/22 01:03:51;;;;;;;1.00;0.93;;;15.10;99.90;;;;;;6298862;28;20145;-79
2023/09/22 01:06:53;;;;;;;0.80;0.68;;;15.00;99.90;;;;;;6298949;28;20045;-79
2023/09/22 01:09:54;;;;;;;0.60;0.60;;;15.00;99.90;;;;;;6299937;28;20044;-78
2023/09/22 01:12:56;;;;;;;0.63;0.63;;;15.00;99.90;;;;;;6299483;28;20045;-80
2023/09/22 01:15:58;;;;;;;2.03;0.75;;;14.90;99.90;;;;;;6298948;28;20048;-79
2023/09/22 01:19:01;;;;;;;1.17;0.60;;;14.90;99.90;;;;;;6299221;28;20047;-78
2023/09/22 01:22:05;;;;;;;1.30;0.82;;;14.90;99.90;;;;;;6297944;28;20501;-78
2023/09/22 01:25:07;;;;;;;1.13;0.93;;;14.80;99.90;;;;;;6299137;28;20044;-78
2023/09/22 01:28:09;;;;;;;1.02;0.73;;;14.80;99.90;;;;;;6298976;28;20048;-79
2023/09/22 01:31:11;;;;;;;0.98;0.75;;;14.70;99.90;;;;;;6299009;28;20052;-80
2023/09/22 01:34:15;;;;;;;0.60;0.60;;;14.60;99.90;;;;;;6298376;28;20049;-80
2023/09/22 01:37:19;;;;;;;5.78;0.93;;;14.60;99.90;;;;;;6297950;28;20078;-79
2023/09/22 01:40:21;;;;;;;2.45;0.88;;;14.60;99.90;;;;;;6298042;28;20401;-80
2023/09/22 01:43:22;;;;;;;0.93;0.93;;;14.60;99.90;;;;;;6298433;28;20036;-79
2023/09/22 01:46:24;;;;;;;0.90;0.75;;;14.60;99.90;;;;;;6298140;28;20124;-79
2023/09/22 01:49:26;;;;;;;2.28;0.93;;;14.60;99.90;;;;;;6298652;28;20055;-80
2023/09/22 01:52:29;;;;;;;6.20;1.73;;;14.60;99.90;;;;;;6298760;28;20044;-80
2023/09/22 01:55:30;;;;;;;1.55;0.80;;;14.60;99.90;;;;;;6298457;28;20059;-79
2023/09/22 01:58:32;;;;;;;4.30;0.60;;;14.60;99.90;;;;;;6298192;28;20049;-79
2023/09/22 02:01:34;;;;;;;0.60;0.52;;;14.60;99.90;;;;;;6298744;28;20048;-79
2023/09/22 02:04:35;;;;;;;0.88;0.80;;;14.50;99.90;;;;;;6298304;28;20500;-79
2023/09/22 02:07:39;;;;;;;2.05;1.15;;;14.50;99.90;;;;;;6299267;28;20044;-80
2023/09/22 02:10:41;;;;;;;1.70;0.98;;;14.50;99.90;;;;;;6298123;28;20055;-79
2023/09/22 02:13:43;;;;;;;2.97;1.02;;;14.40;99.90;;;;;;6298088;28;20519;-79
2023/09/22 02:16:45;;;;;;;1.75;0.65;;;14.40;99.90;;;;;;6297980;28;20060;-79
2023/09/22 02:19:47;;;;;;;2.80;0.90;;;14.40;99.90;;;;;;6299888;28;20048;-80
2023/09/22 02:22:51;;;;;;;0.63;0.60;;;14.40;99.90;;;;;;6298273;28;20122;-79
2023/09/22 02:25:53;;;;;;;1.98;0.82;;;14.40;99.90;;;;;;6300222;28;20048;-79
2023/09/22 02:28:55;;;;;;;1.42;1.17;;;14.40;99.90;;;;;;6299726;28;20040;-80
2023/09/22 02:31:57;;;;;;;1.63;0.70;;;14.40;99.90;;;;;;6299559;28;20059;-79
2023/09/22 02:34:58;;;;;;;2.92;0.82;;;14.40;99.90;;;;;;6291037;28;20041;-81
2023/09/22 02:38:01;;;;;;;1.75;1.08;;;14.40;99.90;;;;;;6299446;28;20070;-79
2023/09/22 02:41:03;;;;;;;1.38;1.08;;;14.40;99.90;;;;;;6299462;28;20058;-81
2023/09/22 02:44:07;;;;;;;1.77;0.73;;;14.40;99.90;;;;;;6299495;28;20049;-80
2023/09/22 02:47:09;;;;;;;0.90;0.80;;;14.40;99.90;;;;;;6300395;28;20061;-81
2023/09/22 02:50:12;;;;;;;0.85;0.85;;;14.30;99.90;;;;;;6298847;28;20425;-80
2023/09/22 02:53:15;;;;;;;0.77;0.68;;;14.30;99.90;;;;;;6297033;28;20055;-80
2023/09/22 02:56:17;;;;;;;0.80;0.65;;;14.40;99.90;;;;;;6297838;28;20440;-80
2023/09/22 02:59:19;;;;;;;0.75;0.68;;;14.30;99.90;;;;;;6298651;28;20517;-78
2023/09/22 03:02:21;;;;;;;0.90;0.70;;;14.30;99.90;;;;;;6298092;28;20041;-80
2023/09/22 03:05:23;;;;;;;1.33;1.15;;;14.30;99.90;;;;;;6297735;28;20051;-81
2023/09/22 03:08:26;;;;;;;9.02;0.90;;;14.30;99.90;;;;;;6297099;28;20421;-81
2023/09/22 03:11:28;;;;;;;0.73;0.52;;;14.30;99.90;;;;;;6297989;28;20045;-80
2023/09/22 03:14:29;;;;;;;0.47;0.40;;;14.30;99.90;;;;;;6296769;28;20508;-79
2023/09/22 03:17:31;;;;;;;1.15;0.95;;;14.30;99.90;;;;;;6300298;28;20113;-78
2023/09/22 03:20:33;;;;;;;0.80;0.80;;;14.20;99.90;;;;;;6298226;28;20037;-80
2023/09/22 03:23:36;;;;;;;0.88;0.82;;;14.20;99.90;;;;;;6298324;28;20071;-78
2023/09/22 03:26:38;;;;;;;6.60;3.00;;;14.10;99.90;;;;;;6297076;28;20064;-79
2023/09/22 03:29:39;;;;;;;1.90;1.00;;;14.20;99.90;;;;;;6296816;28;20052;-78
2023/09/22 03:32:41;;;;;;;1.08;0.82;;;14.20;99.90;;;;;;6297392;28;20045;-79
2023/09/22 03:35:43;;;;;;;1.75;1.00;;;14.20;99.90;;;;;;6301898;28;20037;-78
2023/09/22 03:38:47;;;;;;;1.52;1.23;;;14.20;99.90;;;;;;6301425;28;20048;-79
2023/09/22 03:41:52;;;;;;;1.80;0.80;;;14.20;99.90;;;;;;6302030;28;20051;-79
2023/09/22 03:44:53;;;;;;;1.35;1.05;;;14.30;99.90;;;;;;6301238;28;20045;-79
2023/09/22 03:47:55;;;;;;;1.48;1.20;;;14.30;99.90;;;;;;6300711;28;20516;-79
2023/09/22 03:50:57;;;;;;;0.68;0.68;;;14.30;99.90;;;;;;6304395;28;20052;-81
2023/09/22 03:54:00;;;;;;;2.92;0.80;;;14.30;99.90;;;;;;6303484;28;20047;-78
2023/09/22 03:57:01;;;;;;;2.88;1.67;;;14.30;99.90;;;;;;6303740;28;20055;-80
2023/09/22 04:00:17;;;;;;;4.13;1.08;;;14.30;99.90;;;;;;6304770;28;20051;-80
2023/09/22 04:03:19;;;;;;;2.72;0.90;;;14.30;99.90;;;;;;6304644;28;20044;-81
2023/09/22 04:06:21;;;;;;;1.30;1.30;;;14.20;99.90;;;;;;6314235;28;20060;-79
2023/09/22 04:09:24;;;;;;;1.38;1.20;;;14.20;99.90;;;;;;6300837;28;20051;-79
2023/09/22 04:12:26;;;;;;;3.10;1.70;;;14.20;99.90;;;;;;6301091;28;20248;-80
2023/09/22 04:15:27;;;;;;;1.33;1.20;;;14.10;99.90;;;;;;6301209;28;20045;-80
2023/09/22 04:18:29;;;;;;;2.17;1.67;;;14.10;99.90;;;;;;6301368;28;20052;-80
2023/09/22 04:21:31;;;;;;;2.30;1.75;;;14.10;99.90;;;;;;6301311;28;20820;-81
2023/09/22 04:24:34;;;;;;;2.78;1.42;;;14.10;99.90;;;;;;6300878;28;20041;-79
2023/09/22 04:27:42;;;;;;;1.40;1.23;;;14.10;99.90;;;;;;6301470;28;20052;-79
2023/09/22 04:30:44;;;;;;;;;;;14.10;99.90;;;;;;6301560;28;20060;-79
2023/09/22 04:33:47;;;;;;;1.98;1.10;;;14.10;99.90;;;;;;6300942;28;19920;-78
2023/09/22 04:36:48;;;;;;;3.00;1.63;;;14.10;99.90;;;;;;6300628;28;20469;-79
2023/09/22 04:39:52;;;;;;;1.95;1.10;;;14.10;99.90;;;;;;6301725;28;20421;-79
2023/09/22 04:42:54;;;;;;;2.33;1.98;;;14.10;99.90;;;;;;6302330;28;20048;-78
2023/09/22 04:45:56;;;;;;;4.55;1.65;;;14.10;99.90;;;;;;6301772;28;20051;-78
2023/09/22 04:48:57;;;;;;;5.55;1.10;;;14.20;99.90;;;;;;6302737;28;20045;-79
2023/09/22 04:51:59;;;;;;;2.05;1.30;;;14.20;99.90;;;;;;6302350;28;20060;-79
2023/09/22 04:55:02;;;;;;;2.03;1.00;;;14.20;99.90;;;;;;6301528;28;20056;-79
2023/09/22 04:58:05;;;;;;;3.35;1.10;;;14.20;99.90;;;;;;6301056;28;20178;-79
2023/09/22 05:01:08;;;;;;;2.15;1.20;;;14.30;99.90;;;;;;6293958;28;20041;-80
2023/09/22 05:04:10;;;;;;;3.17;1.45;;;14.40;99.90;;;;;;6302122;28;20050;-79
2023/09/22 05:07:12;;;;;;;2.40;1.20;;;14.40;99.90;;;;;;6303438;28;20063;-78
2023/09/22 05:10:16;;;;;;;4.50;1.65;;;14.50;99.90;;;;;;6301327;28;20114;-80
2023/09/22 05:13:17;;;;;;;2.50;1.60;;;14.50;99.90;;;;;;6300707;28;20036;-78
2023/09/22 05:16:20;;;;;;;2.28;1.45;;;14.60;99.90;;;;;;6300342;28;20421;-79
2023/09/22 05:19:21;;;;;;;4.03;1.55;;;14.60;99.90;;;;;;6301389;28;20059;-79
2023/09/22 05:22:23;;;;;;;6.82;1.27;;;14.70;99.90;;;;;;6300957;28;20508;-78
2023/09/22 05:25:26;;;;;;;4.70;1.30;;;14.60;99.90;;;;;;6300201;28;20051;-80
2023/09/22 05:28:28;;;;;;;2.38;1.52;;;14.70;99.90;;;;;;6300030;28;20060;-79
2023/09/22 05:31:30;;;;;;;3.40;1.42;;;14.70;99.90;;;;;;6301534;28;20044;-79
2023/09/22 05:34:34;;;;;;;2.30;1.50;;;14.80;99.90;;;;;;6300328;28;20513;-80
2023/09/22 05:37:37;;;;;;;1.80;1.70;;;14.80;99.90;;;;;;6300083;28;20040;-79
2023/09/22 05:40:40;;;;;;;2.30;1.15;;;14.90;99.90;;;;;;6299259;28;20142;-79
2023/09/22 05:43:42;;;;;;;1.05;0.95;;;14.90;99.90;;;;;;6299670;28;20052;-78
2023/09/22 05:46:44;;;;;;;1.63;1.23;;;15.00;99.90;;;;;;6300122;28;20116;-79
2023/09/22 05:49:47;;;;;;;6.97;1.30;;;15.00;99.90;;;;;;6299601;28;20047;-78
2023/09/22 05:52:49;;;;;;;3.97;1.10;;;15.00;99.90;;;;;;6300075;28;20046;-79
2023/09/22 05:56:02;;;;;;;1.50;1.02;;;15.10;99.90;;;;;;6300125;28;20063;-78
2023/09/22 05:59:06;;;;;;;1.40;1.30;;;15.10;99.90;;;;;;6300860;28;20048;-79
2023/09/22 06:02:08;;;;;;;2.20;1.00;;;15.00;99.90;;;;;;6299924;28;20050;-79
2023/09/22 06:05:10;;;;;;;2.25;1.08;;;15.00;99.90;;;;;;6301153;28;20050;-78
2023/09/22 06:08:12;;;;;;;0.93;0.75;;;15.00;99.90;;;;;;6300053;28;20469;-79
2023/09/22 06:11:15;;;;;;;1.60;1.13;;;15.00;99.90;;;;;;6301572;28;20054;-77
2023/09/22 06:14:17;;;;;;;2.95;1.98;;;15.00;99.90;;;;;;6272840;28;20836;-79
2023/09/22 06:17:19;;;;;;;1.25;0.70;;;15.00;99.90;;;;;;6294971;28;20055;-80
2023/09/22 06:20:22;;;;;;;4.38;0.85;;;15.00;99.90;;;;;;6286470;28;20044;-77
2023/09/22 06:23:24;;;;;;;3.17;0.98;;;15.10;99.90;;;;;;6291904;28;20041;-78
2023/09/22 06:26:27;;;;;;;0.93;0.93;;;15.10;99.90;;;;;;6293252;28;20056;-78
2023/09/22 06:29:29;;;;;;;1.00;0.90;;;15.10;99.90;;;;;;6300971;28;20536;-78
2023/09/22 06:32:32;;;;;;;3.83;1.23;;;15.00;99.90;;;;;;6301669;28;20055;-78
2023/09/22 06:35:34;;;;;;;2.45;1.15;;;15.00;99.90;;;;;;6299242;28;20049;-79
2023/09/22 06:38:36;;;;;;;1.15;1.08;;;15.10;99.90;;;;;;6299890;28;20047;-78
2023/09/22 06:41:39;;;;;;;1.23;1.13;;;15.10;99.90;;;;;;6288426;28;20052;-79
2023/09/22 06:44:41;;;;;;;1.98;1.20;;;15.10;99.90;;;;;;6280092;28;20413;-78
2023/09/22 06:47:43;;;;;;;9.82;1.13;;;15.10;99.90;;;;;;6300485;28;20059;-78
2023/09/22 06:50:45;;;;;;;2.15;0.95;;;15.10;99.90;;;;;;6300749;28;20401;-79
2023/09/22 06:53:47;;;;;;;1.13;0.85;;;15.20;99.90;;;;;;6301234;28;20044;-78
2023/09/22 06:56:52;;;;;;;1.65;0.93;;;15.20;99.90;;;;;;6300492;28;20052;-79
2023/09/22 06:59:53;;;;;;;0.80;0.80;;;15.30;99.90;;;;;;6301407;28;20044;-79
2023/09/22 07:02:56;;;;;;;0.88;0.70;;;15.30;99.90;;;;;;6300446;28;20040;-79
2023/09/22 07:05:58;;;;;;;1.67;1.17;;;15.30;99.90;;;;;;6300677;28;20524;-77
2023/09/22 07:08:59;;;;;;;0.75;0.75;;;15.30;99.90;;;;;;6298845;28;20037;-79
2023/09/22 07:12:03;;;;;;;2.90;2.00;;;15.40;99.90;;;;;;6306538;28;20048;-79
2023/09/22 07:15:06;;;;;;;1.85;0.90;;;15.50;99.90;;;;;;6305375;28;20171;-77
2023/09/22 07:18:07;;;;;;;3.08;1.90;;;15.50;99.90;;;;;;6305613;28;20090;-79
2023/09/22 07:21:09;;;;;;;1.15;1.05;;;15.50;99.90;;;;;;6305236;28;20051;-79
2023/09/22 07:24:11;;;;;;;4.38;1.25;;;15.60;99.90;;;;;;6305336;28;20062;-79
2023/09/22 07:27:14;;;;;;;2.22;1.40;;;15.60;99.90;;;;;;6305812;28;20143;-78
2023/09/22 07:30:18;;;;;;;1.40;0.90;;;15.70;99.90;;;;;;6297929;28;20040;-79
2023/09/22 07:33:20;;;;;;;5.50;0.90;;;15.70;99.90;;;;;;6304900;28;20048;-78
2023/09/22 07:36:21;;;;;;;1.05;0.90;;;15.70;99.90;;;;;;6305926;28;20051;-78
2023/09/22 07:39:23;;;;;;;1.35;1.25;;;15.70;99.90;;;;;;6305389;28;20079;-79
2023/09/22 07:42:31;;;;;;;1.52;0.60;;;15.70;99.90;;;;;;6305154;28;20044;-79
2023/09/22 07:45:33;;;;;;;;;;;15.70;99.90;;;;;;6305694;28;20055;-79
2023/09/22 07:48:36;;;;;;;0.90;0.77;;;15.60;99.90;;;;;;6304657;28;19935;-79
2023/09/22 07:51:38;;;;;;;0.90;0.50;;;15.70;99.90;;;;;;6303814;28;20539;-80
2023/09/22 07:54:40;;;;;;;1.73;0.77;;;15.60;99.90;;;;;;6303851;28;20037;-78
2023/09/22 07:57:47;;;;;;;2.97;1.08;;;15.60;99.90;;;;;;6304685;28;20051;-80
2023/09/22 08:00:48;;;;;;;3.28;1.05;;;15.50;99.90;;;;;;6304304;28;20497;-78
2023/09/22 08:03:51;;;;;;;1.63;0.77;;;15.70;99.90;;;;;;6303539;28;20048;-79
2023/09/22 08:06:53;;;;;;;0.70;0.70;;;15.70;99.90;;;;;;6302887;28;20050;-79
2023/09/22 08:09:55;;;;;;;0.70;0.60;;;15.80;99.90;;;;;;6303311;28;20052;-78
2023/09/22 08:12:58;;;;;;;5.82;0.85;;;15.90;99.90;;;;;;6294581;28;20040;-78
2023/09/22 08:16:00;;;;;;;0.57;0.57;;;15.90;99.90;;;;;;6303593;28;20047;-79
2023/09/22 08:19:01;;;;;;;0.80;0.55;;;16.00;99.90;;;;;;6302203;28;20044;-79
2023/09/22 08:22:03;;;;;;;2.05;0.90;;;16.10;99.90;;;;;;6301969;28;20422;-79
2023/09/22 08:25:08;;;;;;;2.35;1.40;;;16.20;99.90;;;;;;6303325;28;20041;-78
2023/09/22 08:28:12;;;;;;;0.98;0.90;;;16.30;99.90;;;;;;6302196;28;20090;-79
2023/09/22 08:31:15;;;;;;;2.70;0.70;;;16.40;99.90;;;;;;6300226;28;20049;-80
2023/09/22 08:34:18;;;;;;;2.53;1.00;;;16.30;99.90;;;;;;6301891;28;20063;-80
2023/09/22 08:37:21;;;;;;;1.05;0.52;;;16.40;99.90;;;;;;6302738;28;20036;-79
2023/09/22 08:40:23;;;;;;;3.13;0.65;;;16.40;99.90;;;;;;6302563;28;20268;-79
2023/09/22 08:43:27;;;;;;;0.82;0.82;;;16.40;99.90;;;;;;6295497;28;20055;-80
2023/09/22 08:46:28;;;;;;;1.73;0.70;;;16.30;99.90;;;;;;6302493;28;20041;-79
2023/09/22 08:49:30;;;;;;;0.80;0.60;;;16.20;99.90;;;;;;6300906;28;20453;-78
2023/09/22 08:52:32;;;;;;;1.92;0.75;;;16.20;99.90;;;;;;6301599;28;20501;-79
2023/09/22 08:55:34;;;;;;;0.73;0.65;;;16.20;99.90;;;;;;6302059;28;20078;-79
2023/09/22 08:58:37;;;;;;;1.65;1.27;;;16.10;99.90;;;;;;6302281;28;20062;-78
2023/09/22 09:01:39;;;;;;;2.67;0.85;;;16.10;99.90;;;;;;6301286;28;20048;-78
2023/09/22 09:04:41;;;;;;;1.60;1.00;;;16.00;99.90;;;;;;6301748;28;20607;-78
2023/09/22 09:07:43;;;;;;;2.45;0.82;;;16.00;99.90;;;;;;6300696;28;20040;-78
2023/09/22 09:10:46;;;;;;;1.30;0.80;;;15.90;99.90;;;;;;6305537;28;20078;-78
2023/09/22 09:13:49;;;;;;;0.88;0.60;;;15.90;99.90;;;;;;6302518;28;20048;-78
2023/09/22 09:16:51;;;;;;;4.57;2.03;;;16.00;99.90;;;;;;6302570;28;20037;-78
2023/09/22 09:19:54;;;;;;;5.13;1.35;;;16.10;99.90;;;;;;6301160;28;20505;-77
2023/09/22 09:22:56;;;;;;;2.88;1.75;;;16.30;99.90;;;;;;6297798;28;20049;-78
2023/09/22 09:25:58;;;;;;;1.95;1.55;;;16.70;99.90;;;;;;6298993;28;20040;-78
2023/09/22 09:29:02;;;;;;;1.80;1.08;;;17.10;99.90;;;;;;6302100;28;20052;-78
2023/09/22 09:32:04;;;;;;;1.92;1.20;;;17.40;99.90;;;;;;6301850;28;20084;-78
2023/09/22 09:35:06;;;;;;;4.05;1.25;;;17.50;99.90;;;;;;6300486;28;20055;-79
2023/09/22 09:38:09;;;;;;;1.02;0.73;;;17.50;99.90;;;;;;6300855;28;20045;-78
2023/09/22 09:41:11;;;;;;;1.88;1.17;;;17.70;99.90;;;;;;6302325;28;20044;-78
2023/09/22 09:44:14;;;;;;;2.35;1.20;;;18.10;99.90;;;;;;6301932;28;20397;-77
2023/09/22 09:47:24;;;;;;;2.72;1.10;;;18.70;99.90;;;;;;6302721;28;20052;-77
2023/09/22 09:50:27;;;;;;;1.25;0.82;;;19.50;99.90;;;;;;6301568;28;20048;-79
2023/09/22 09:53:37;;;;;;;1.27;0.68;;;20.00;99.90;;;;;;6301471;28;20420;-78
2023/09/22 09:56:41;;;;;;;2.08;1.73;;;20.10;99.90;;;;;;6300958;28;20040;-78
2023/09/22 09:59:45;;;;;;;1.17;0.63;;;20.50;99.90;;;;;;6301601;28;20131;-78
2023/09/22 10:02:49;;;;;;;1.98;0.70;;;20.80;99.90;;;;;;6299858;28;20044;-78
2023/09/22 10:05:52;;;;;;;3.45;0.70;;;21.00;99.90;;;;;;6299857;28;20051;-79
2023/09/22 10:08:57;;;;;;;1.40;0.57;;;21.40;99.90;;;;;;6299863;28;20052;-80
2023/09/22 10:12:00;;;;;;;0.40;0.40;;;21.70;99.90;;;;;;6298673;28;20512;-79
2023/09/22 10:15:05;;;;;;;1.10;0.60;;;21.40;99.90;;;;;;6298520;28;20071;-78
2023/09/22 10:18:07;;;;;;;1.85;0.52;;;21.40;99.90;;;;;;6297532;28;20098;-79
2023/09/22 10:21:08;;;;;;;0.95;0.57;;;21.60;99.90;;;;;;6298142;28;20051;-79
2023/09/22 10:24:18;;;;;;;0.52;0.43;;;21.30;99.90;;;;;;6295182;28;20040;-79
2023/09/22 10:27:19;;;;;;;1.25;0.40;;;21.00;99.90;;;;;;6299100;28;20040;-78
2023/09/22 10:30:27;;;;;;;5.75;2.28;;;20.80;99.90;;;;;;6298586;28;20040;-79
2023/09/22 10:33:32;;;;;;;0.50;0.50;;;20.70;99.90;;;;;;6287708;28;20048;-79
2023/09/22 10:36:46;;;;;;;1.02;0.43;;;20.60;99.90;;;;;;6291674;28;20174;-79
2023/09/22 10:39:52;;;;;;;0.50;0.50;;;20.50;99.90;;;;;;6298761;28;20144;-79
2023/09/22 10:42:54;;;;;;;0.50;0.50;;;20.80;99.90;;;;;;6299403;28;20055;-80
2023/09/22 10:45:57;;;;;;;4.78;0.43;;;21.10;99.90;;;;;;6304059;28;20043;-80
2023/09/22 10:48:59;;;;;;;0.90;0.57;;;21.00;99.90;;;;;;6302850;28;20520;-78
2023/09/22 10:52:01;;;;;;;0.35;0.30;;;21.10;99.90;;;;;;6302394;28;20508;-79
2023/09/22 10:55:04;;;;;;;0.77;0.50;;;21.30;99.90;;;;;;6302509;28;20044;-79
2023/09/22 10:58:07;;;;;;;0.55;0.30;;;21.40;99.90;;;;;;6302695;28;20166;-79
2023/09/22 11:01:10;;;;;;;1.85;0.32;;;21.70;99.90;;;;;;6297316;28;20048;-79
2023/09/22 11:04:12;;;;;;;0.85;0.85;;;22.20;99.90;;;;;;6301957;28;20151;-79
2023/09/22 11:07:14;;;;;;;0.40;0.40;;;22.60;99.90;;;;;;6303342;28;20040;-78
2023/09/22 11:10:20;;;;;;;2.03;1.13;;;22.90;99.90;;;;;;6302847;28;20051;-80
2023/09/22 11:13:22;;;;;;;3.50;1.30;;;23.10;99.90;;;;;;6302862;28;20096;-80
2023/09/22 11:16:26;;;;;;;0.90;0.52;;;22.80;99.90;;;;;;6302955;28;20045;-78
2023/09/22 11:19:27;;;;;;;1.42;0.60;;;22.60;99.90;;;;;;6298065;28;20053;-79
2023/09/22 11:22:34;;;;;;;1.63;0.57;;;22.70;99.90;;;;;;6302860;28;20048;-79
2023/09/22 11:25:35;;;;;;;1.13;0.60;;;22.90;99.90;;;;;;6302254;28;20044;-78
2023/09/22 11:28:40;;;;;;;1.05;0.50;;;23.00;99.90;;;;;;6302249;28;20048;-79
2023/09/22 11:31:56;;;;;;;0.40;0.40;;;23.30;99.90;;;;;;6296962;28;20052;-80
2023/09/22 11:34:58;;;;;;;1.52;0.70;;;23.20;99.90;;;;;;6302272;28;20056;-79
2023/09/22 11:38:00;;;;;;;2.33;1.52;;;23.30;99.90;;;;;;6301710;28;20062;-80
2023/09/22 11:41:08;;;;;;;0.47;0.30;;;23.70;99.90;;;;;;6302507;28;20044;-79
2023/09/22 11:44:14;;;;;;;1.15;0.98;;;23.90;99.90;;;;;;6301870;28;20055;-79
2023/09/22 11:47:22;;;;;;;0.30;0.30;;;23.70;99.90;;;;;;6302746;28;20046;-79
2023/09/22 11:50:25;;;;;;;0.55;0.50;;;23.60;99.90;;;;;;6302074;28;20044;-80
2023/09/22 11:53:28;;;;;;;1.95;0.80;;;23.30;99.90;;;;;;6301886;28;20045;-79
2023/09/22 11:56:30;;;;;;;1.30;0.60;;;23.10;99.90;;;;;;6305977;28;20052;-77
2023/09/22 11:59:34;;;;;;;0.93;0.32;;;23.30;99.90;;;;;;6299178;28;20056;-78
2023/09/22 12:02:37;;;;;;;2.00;0.60;;;23.30;99.90;;;;;;6298920;28;20052;-78
2023/09/22 12:05:39;;;;;;;2.00;0.70;;;22.80;99.90;;;;;;6299673;28;20048;-78
2023/09/22 12:08:40;;;;;;;1.05;0.60;;;22.60;99.90;;;;;;6300706;28;20055;-78
2023/09/22 12:11:43;;;;;;;1.85;0.50;;;22.40;99.90;;;;;;6301775;28;20051;-78
2023/09/22 12:14:44;;;;;;;1.88;0.73;;;22.40;99.90;;;;;;6301773;28;20052;-78
2023/09/22 12:17:47;;;;;;;2.17;0.70;;;22.50;99.90;;;;;;6302036;28;20055;-78
2023/09/22 12:20:49;;;;;;;1.15;0.52;;;22.60;99.90;;;;;;6297834;28;20040;-78
2023/09/22 12:23:51;;;;;;;1.23;0.75;;;22.80;99.90;;;;;;6301019;28;20056;-79
2023/09/22 12:26:53;;;;;;;0.95;0.60;;;23.20;99.90;;;;;;6302173;28;20051;-79
2023/09/22 12:29:55;;;;;;;1.25;0.50;;;23.80;99.90;;;;;;6301163;28;20041;-78
2023/09/22 12:32:58;;;;;;;0.65;0.40;;;24.60;99.90;;;;;;6301535;28;20047;-79
2023/09/22 12:36:01;;;;;;;0.90;0.50;;;25.40;99.90;;;;;;6301983;28;20040;-78
2023/09/22 12:39:03;;;;;;;6.60;0.88;;;25.80;99.90;;;;;;6300754;28;20044;-78
2023/09/22 12:42:05;;;;;;;1.98;0.90;;;25.80;99.90;;;;;;6300488;28;20497;-78
2023/09/22 12:45:08;;;;;;;0.50;0.40;;;25.70;99.90;;;;;;6301651;28;20378;-79
2023/09/22 12:48:12;;;;;;;3.30;0.60;;;25.50;99.90;;;;;;6300816;28;20047;-78
2023/09/22 12:51:13;;;;;;;0.38;0.35;;;25.50;99.90;;;;;;6302195;28;20052;-78
2023/09/22 12:54:15;;;;;;;1.17;0.52;;;25.30;99.90;;;;;;6300576;28;20044;-80
2023/09/22 12:57:17;;;;;;;0.88;0.30;;;25.40;99.90;;;;;;6298934;28;20044;-78
2023/09/22 13:00:18;;;;;;;0.65;0.50;;;25.60;99.90;;;;;;6300377;28;20048;-78
2023/09/22 13:03:22;;;;;;;0.80;0.50;;;25.60;99.90;;;;;;6301590;28;20426;-78
2023/09/22 13:06:23;;;;;;;6.28;0.47;;;25.60;99.90;;;;;;6299741;28;20071;-79
2023/09/22 13:09:27;;;;;;;1.40;0.22;;;25.70;99.90;;;;;;6299731;28;20053;-78
2023/09/22 13:12:28;;;;;;;1.38;0.60;;;25.80;99.90;;;;;;6300719;28;20051;-79
2023/09/22 13:15:30;;;;;;;1.38;0.70;;;25.50;99.90;;;;;;6299331;28;20056;-78
2023/09/22 13:18:33;;;;;;;1.45;1.17;;;25.60;99.90;;;;;;6300352;28;20052;-79
2023/09/22 13:21:35;;;;;;;1.25;0.55;;;25.70;99.90;;;;;;6295395;28;20048;-79
2023/09/22 13:24:37;;;;;;;1.50;0.65;;;25.40;99.90;;;;;;6292034;28;20501;-79
2023/09/22 13:27:41;;;;;;;2.80;0.50;;;24.80;99.90;;;;;;6300607;28;20040;-80
2023/09/22 13:30:46;;;;;;;0.75;0.52;;;24.30;99.90;;;;;;6299799;28;20052;-79
2023/09/22 13:33:50;;;;;;;0.93;0.90;;;24.20;99.90;;;;;;6299512;28;20068;-78
2023/09/22 13:36:51;;;;;;;1.08;0.60;;;23.90;99.90;;;;;;6299171;28;20079;-78
2023/09/22 13:39:53;;;;;;;3.25;0.77;;;23.80;99.90;;;;;;6300013;28;20048;-78
2023/09/22 13:42:55;;;;;;;1.77;0.52;;;24.00;99.90;;;;;;6296834;28;20048;-77
2023/09/22 13:45:57;;;;;;;0.85;0.50;;;23.90;99.90;;;;;;6298958;28;20055;-78
2023/09/22 13:49:00;;;;;;;2.10;0.90;;;23.60;99.90;;;;;;6299996;28;20040;-78
2023/09/22 13:52:02;;;;;;;3.05;0.60;;;23.20;99.90;;;;;;6298796;28;20040;-77
2023/09/22 13:55:06;;;;;;;2.30;1.13;;;22.90;99.90;;;;;;6300365;28;20036;-77
2023/09/22 13:58:09;;;;;;;1.45;0.70;;;23.10;99.90;;;;;;6292547;28;20036;-77
2023/09/22 14:01:11;;;;;;;3.03;1.77;;;23.50;99.90;;;;;;6285462;28;20051;-77
2023/09/22 14:04:15;;;;;;;1.65;0.60;;;23.70;99.90;;;;;;6293995;28;20106;-77
2023/09/22 14:07:17;;;;;;;4.10;0.73;;;24.20;99.90;;;;;;6295604;28;20048;-77
2023/09/22 14:10:22;;;;;;;2.13;0.60;;;25.00;99.90;;;;;;6296592;28;20424;-77
2023/09/22 14:13:24;;;;;;;0.60;0.30;;;25.40;99.90;;;;;;6296237;28;20041;-77
2023/09/22 14:16:26;;;;;;;2.08;0.35;;;25.50;99.90;;;;;;6296114;28;20060;-78
2023/09/22 14:19:29;;;;;;;0.90;0.40;;;25.70;99.90;;;;;;6295537;28;20052;-78
2023/09/22 14:22:31;;;;;;;3.03;0.60;;;25.50;99.90;;;;;;6298480;28;20045;-78
2023/09/22 14:25:36;;;;;;;1.55;0.57;;;25.10;99.90;;;;;;6295699;28;20047;-78
2023/09/22 14:28:37;;;;;;;3.22;1.73;;;24.60;99.90;;;;;;6300828;28;20047;-78
2023/09/22 14:31:39;;;;;;;0.52;0.45;;;24.40;99.90;;;;;;6299874;28;20056;-78
2023/09/22 14:34:42;;;;;;;3.70;0.98;;;23.90;99.90;;;;;;6301514;28;20513;-78
2023/09/22 14:37:44;;;;;;;2.80;0.60;;;24.20;99.90;;;;;;6289271;28;20047;-78
2023/09/22 14:40:45;;;;;;;2.03;0.60;;;24.50;99.90;;;;;;6294359;28;20413;-78
2023/09/22 14:43:47;;;;;;;0.98;0.40;;;24.80;99.40;;;;;;6300443;28;20056;-78
2023/09/22 14:46:49;;;;;;;1.23;1.10;;;24.70;98.60;;;;;;6300241;28;20052;-79
2023/09/22 14:49:52;;;;;;;0.85;0.43;;;24.90;98.10;;;;;;6300545;28;20045;-78
2023/09/22 14:52:53;;;;;;;1.17;0.70;;;25.10;97.90;;;;;;6299240;28;20045;-78
2023/09/22 14:55:58;;;;;;;0.73;0.50;;;25.00;98.00;;;;;;6300462;28;20052;-78
2023/09/22 14:58:59;;;;;;;1.15;0.55;;;24.60;97.30;;;;;;6298454;28;20045;-79
2023/09/22 15:02:02;;;;;;;0.85;0.52;;;24.30;97.30;;;;;;6299446;28;20489;-78
2023/09/22 15:05:05;;;;;;;3.85;1.55;;;23.70;97.10;;;;;;6300265;28;20037;-78
2023/09/22 15:08:07;;;;;;;1.73;0.52;;;23.30;97.20;;;;;;6301539;28;20051;-79
2023/09/22 15:11:09;;;;;;;1.02;0.77;;;22.90;96.60;;;;;;6299376;28;20067;-78
2023/09/22 15:14:10;;;;;;;3.15;0.80;;;22.60;97.70;;;;;;6301779;28;20067;-78
2023/09/22 15:17:12;;;;;;;1.48;1.08;;;22.30;96.70;;;;;;6300770;28;20424;-78
2023/09/22 15:20:16;;;;;;;1.20;0.57;;;22.10;97.40;;;;;;6300783;28;20048;-78
2023/09/22 15:23:18;;;;;;;1.02;0.82;;;21.80;97.60;;;;;;6300389;28;20045;-78
2023/09/22 15:26:21;;;;;;;1.02;0.50;;;21.70;97.70;;;;;;6301456;28;20045;-78
2023/09/22 15:29:23;;;;;;;2.25;0.70;;;21.50;97.50;;;;;;6302772;28;20055;-79
2023/09/22 15:32:24;;;;;;;5.28;1.58;;;21.30;97.60;;;;;;6305003;28;20425;-78
2023/09/22 15:35:27;;;;;;;3.92;1.50;;;21.20;98.10;;;;;;6304872;28;20053;-79
2023/09/22 15:38:30;;;;;;;3.83;0.88;;;21.20;98.20;;;;;;6304528;28;20052;-79
2023/09/22 15:41:33;;;;;;;1.90;1.15;;;21.20;98.10;;;;;;6304259;28;20044;-80
2023/09/22 15:44:35;;;;;;;4.32;1.35;;;21.10;98.30;;;;;;6305392;28;20041;-79
2023/09/22 15:47:37;;;;;;;2.95;1.02;;;21.10;98.30;;;;;;6304520;28;20048;-79
2023/09/22 15:50:40;;;;;;;1.20;0.50;;;21.10;98.20;;;;;;6302918;28;20055;-79
2023/09/22 15:53:41;;;;;;;2.50;1.15;;;21.10;97.80;;;;;;6304175;28;20047;-79